createdAt,value
2018-03-21T00:00:07.129Z,3.27
2018-03-21T00:03:08.391Z,3.40
2018-03-21T00:06:09.655Z,3.30
2018-03-21T00:09:10.932Z,3.27
2018-03-21T00:12:12.925Z,3.40
2018-03-21T00:15:14.210Z,3.40
2018-03-21T00:18:15.437Z,3.30
2018-03-21T00:21:17.419Z,3.07
2018-03-21T00:24:19.408Z,3.93
2018-03-21T00:27:21.430Z,3.60
2018-03-21T00:30:22.687Z,4.23
2018-03-21T00:33:23.930Z,4.43
2018-03-21T00:36:25.199Z,3.60
2018-03-21T00:39:26.474Z,3.07
2018-03-21T00:42:27.761Z,3.23
2018-03-21T00:45:29.024Z,3.00
2018-03-21T00:48:30.282Z,3.13
2018-03-21T00:51:31.516Z,3.20
2018-03-21T00:54:32.779Z,2.87
2018-03-21T00:57:34.039Z,3.50
2018-03-21T01:00:35.306Z,3.27
2018-03-21T01:03:36.567Z,3.20
2018-03-21T01:06:37.815Z,3.43
2018-03-21T01:09:39.089Z,3.07
2018-03-21T01:12:40.321Z,3.10
2018-03-21T01:15:42.314Z,3.40
2018-03-21T01:18:43.563Z,2.57
2018-03-21T01:21:45.562Z,3.07
2018-03-21T01:24:46.810Z,3.80
2018-03-21T01:27:48.818Z,3.20
2018-03-21T01:30:50.078Z,2.20
2018-03-21T01:33:51.309Z,2.40
2018-03-21T01:36:53.347Z,2.43
2018-03-21T01:39:54.611Z,2.90
2018-03-21T01:42:55.890Z,2.57
2018-03-21T01:45:57.154Z,2.23
2018-03-21T01:48:58.406Z,3.90
2018-03-21T01:51:59.679Z,3.10
2018-03-21T01:55:00.917Z,2.70
2018-03-21T01:58:02.206Z,2.50
2018-03-21T02:01:03.470Z,2.23
2018-03-21T02:04:04.754Z,2.40
2018-03-21T02:07:06.029Z,2.90
2018-03-21T02:10:08.016Z,3.00
2018-03-21T02:13:09.980Z,3.27
2018-03-21T02:16:11.230Z,3.50
2018-03-21T02:19:12.504Z,3.83
2018-03-21T02:22:13.744Z,2.87
2018-03-21T02:25:15.025Z,2.83
2018-03-21T02:28:16.278Z,3.10
2018-03-21T02:31:17.499Z,3.00
2018-03-21T02:34:18.778Z,2.60
2018-03-21T02:37:20.008Z,2.97
2018-03-21T02:40:22.025Z,3.13
2018-03-21T02:43:23.283Z,2.90
2018-03-21T02:46:24.543Z,2.90
2018-03-21T02:49:25.825Z,2.70
2018-03-21T02:52:27.096Z,3.20
2018-03-21T02:55:28.357Z,2.97
2018-03-21T02:58:29.624Z,3.13
2018-03-21T03:01:30.872Z,3.03
2018-03-21T03:04:32.165Z,3.03
2018-03-21T03:07:33.410Z,2.70
2018-03-21T03:10:34.690Z,2.40
2018-03-21T03:13:35.959Z,2.43
2018-03-21T03:16:37.228Z,3.20
2018-03-21T03:19:38.526Z,2.77
2018-03-21T03:22:39.815Z,3.17
2018-03-21T03:25:41.094Z,3.23
2018-03-21T03:28:42.339Z,2.63
2018-03-21T03:31:43.620Z,3.23
2018-03-21T03:34:44.893Z,2.90
2018-03-21T03:37:46.151Z,3.07
2018-03-21T03:40:47.419Z,3.27
2018-03-21T03:43:48.680Z,2.33
2018-03-21T03:46:49.954Z,2.47
2018-03-21T03:49:51.195Z,2.70
2018-03-21T03:52:52.430Z,2.93
2018-03-21T03:55:53.656Z,2.90
2018-03-21T03:58:55.642Z,3.50
2018-03-21T04:01:57.644Z,2.60
2018-03-21T04:04:58.887Z,2.90
2018-03-21T04:08:00.855Z,3.30
2018-03-21T04:11:02.139Z,2.57
2018-03-21T04:14:03.435Z,3.10
2018-03-21T04:17:04.693Z,3.07
2018-03-21T04:20:05.958Z,3.07
2018-03-21T04:23:07.214Z,3.20
2018-03-21T04:26:08.446Z,2.97
2018-03-21T04:29:10.418Z,3.30
2018-03-21T04:32:11.642Z,2.77
2018-03-21T04:35:12.888Z,2.93
2018-03-21T04:38:14.122Z,3.40
2018-03-21T04:41:16.137Z,3.67
2018-03-21T04:44:17.855Z,2.90
2018-03-21T04:47:19.157Z,3.33
2018-03-21T04:50:20.407Z,3.30
2018-03-21T04:53:21.667Z,3.20
2018-03-21T04:56:23.663Z,3.50
2018-03-21T04:59:24.923Z,3.90
2018-03-21T05:02:26.180Z,4.07
2018-03-21T05:05:27.449Z,4.40
2018-03-21T05:08:28.694Z,3.47
2018-03-21T05:11:30.666Z,3.63
2018-03-21T05:14:32.650Z,3.80
2018-03-21T05:17:34.661Z,4.23
2018-03-21T05:20:35.898Z,3.80
2018-03-21T05:23:37.935Z,4.43
2018-03-21T05:26:39.167Z,4.03
2018-03-21T05:29:40.464Z,4.77
2018-03-21T05:32:41.701Z,4.23
2018-03-21T05:35:42.916Z,4.80
2018-03-21T05:38:44.258Z,4.50
2018-03-21T05:41:45.467Z,6.00
2018-03-21T05:44:47.461Z,6.00
2018-03-21T05:47:48.693Z,4.23
2018-03-21T05:50:50.664Z,5.77
2018-03-21T05:53:51.898Z,6.40
2018-03-21T05:56:53.123Z,5.40
2018-03-21T05:59:54.451Z,5.23
2018-03-21T06:02:55.734Z,6.63
2018-03-21T06:05:57.718Z,6.53
2018-03-21T06:08:59.675Z,6.90
2018-03-21T06:12:00.899Z,7.23
2018-03-21T06:15:02.129Z,7.80
2018-03-21T06:18:03.412Z,7.03
2018-03-21T06:21:04.695Z,7.03
2018-03-21T06:24:05.964Z,7.30
2018-03-21T06:27:07.215Z,8.33
2018-03-21T06:30:08.436Z,8.13
2018-03-21T06:33:10.411Z,7.30
2018-03-21T06:36:12.394Z,7.73
2018-03-21T06:39:14.422Z,6.97
2018-03-21T06:42:15.666Z,7.70
2018-03-21T06:45:16.902Z,8.00
2018-03-21T06:48:18.875Z,7.93
2018-03-21T06:51:20.873Z,9.17
2018-03-21T06:54:22.108Z,7.73
2018-03-21T06:57:24.098Z,7.20
2018-03-21T07:00:26.109Z,6.70
2018-03-21T07:03:27.337Z,7.60
2018-03-21T07:06:29.326Z,11.10
2018-03-21T07:09:31.304Z,8.73
2018-03-21T07:12:33.275Z,6.50
2018-03-21T07:15:53.894Z,7.03
2018-03-21T07:18:55.153Z,7.73
2018-03-21T07:21:56.447Z,7.40
2018-03-21T07:24:57.740Z,8.60
2018-03-21T07:27:59.022Z,6.27
2018-03-21T07:31:00.271Z,7.17
2018-03-21T07:34:01.558Z,7.20
2018-03-21T07:37:02.864Z,8.23
2018-03-21T07:40:04.110Z,8.87
2018-03-21T07:43:05.355Z,8.60
2018-03-21T07:46:06.572Z,9.70
2018-03-21T07:49:07.843Z,8.33
2018-03-21T07:52:09.137Z,9.87
2018-03-21T07:55:10.364Z,10.60
2018-03-21T07:58:12.378Z,10.80
2018-03-21T08:01:13.629Z,11.60
2018-03-21T08:04:14.880Z,14.47
2018-03-21T08:07:16.134Z,6.37
2018-03-21T08:10:17.390Z,18.17
2018-03-21T08:13:18.678Z,19.63
2018-03-21T08:16:19.940Z,16.57
2018-03-21T08:19:21.214Z,17.33
2018-03-21T08:22:22.465Z,25.57
2018-03-21T08:25:23.751Z,17.37
2018-03-21T08:28:25.009Z,21.27
2018-03-21T08:31:26.271Z,16.20
2018-03-21T08:34:27.574Z,16.13
2018-03-21T08:37:29.582Z,17.70
2018-03-21T08:40:30.908Z,18.07
2018-03-21T08:43:32.159Z,19.87
2018-03-21T08:46:34.171Z,21.47
2018-03-21T08:49:35.404Z,21.30
2018-03-21T08:52:36.638Z,20.13
2018-03-21T08:55:37.941Z,21.90
2018-03-21T08:58:39.158Z,22.10
2018-03-21T09:01:40.392Z,21.87
2018-03-21T09:04:41.676Z,22.67
2018-03-21T09:07:42.929Z,24.43
2018-03-21T09:10:44.252Z,25.00
2018-03-21T09:13:45.609Z,24.83
2018-03-21T09:16:46.832Z,25.37
2018-03-21T09:19:48.072Z,29.10
2018-03-21T09:22:49.342Z,24.30
2018-03-21T09:25:50.599Z,25.30
2018-03-21T09:28:51.828Z,25.80
2018-03-21T09:31:53.078Z,23.60
2018-03-21T09:34:54.351Z,30.50
2018-03-21T09:37:55.641Z,31.60
2018-03-21T09:40:56.915Z,26.13
2018-03-21T09:43:58.147Z,24.57
2018-03-21T09:46:59.485Z,37.87
2018-03-21T09:50:00.745Z,31.20
2018-03-21T09:53:02.029Z,33.17
2018-03-21T09:56:03.301Z,34.50
2018-03-21T09:59:04.546Z,35.23
2018-03-21T10:02:05.837Z,34.50
2018-03-21T10:05:07.824Z,31.40
2018-03-21T10:08:09.811Z,31.43
2018-03-21T10:11:11.787Z,31.67
2018-03-21T10:14:13.767Z,33.30
2018-03-21T10:17:16.038Z,29.37
2018-03-21T10:20:17.310Z,29.27
2018-03-21T10:23:19.308Z,29.63
2018-03-21T10:26:20.551Z,25.70
2018-03-21T10:29:22.563Z,24.10
2018-03-21T10:32:23.759Z,24.57
2018-03-21T10:35:25.024Z,23.63
2018-03-21T10:38:26.282Z,25.70
2018-03-21T10:41:27.496Z,24.90
2018-03-21T10:44:29.507Z,26.07
2018-03-21T10:47:30.792Z,23.97
2018-03-21T10:50:32.022Z,26.50
2018-03-21T10:53:33.287Z,29.40
2018-03-21T10:56:34.499Z,29.97
2018-03-21T10:59:35.755Z,28.03
2018-03-21T11:02:43.295Z,26.07
2018-03-21T11:05:45.280Z,30.47
2018-03-21T11:08:47.244Z,33.00
2018-03-21T11:11:48.488Z,32.07
2018-03-21T11:14:49.730Z,33.20
2018-03-21T11:17:50.947Z,29.83
2018-03-21T11:20:52.934Z,33.80
2018-03-21T11:23:54.910Z,32.00
2018-03-21T11:26:56.868Z,34.90
2018-03-21T11:29:58.127Z,33.53
2018-03-21T11:32:59.386Z,34.07
2018-03-21T11:36:00.618Z,36.17
2018-03-21T11:39:01.925Z,37.50
2018-03-21T11:42:03.130Z,38.90
2018-03-21T11:45:04.404Z,36.67
2018-03-21T11:48:05.622Z,37.63
2018-03-21T11:51:07.599Z,34.93
2018-03-21T11:54:09.626Z,38.00
2018-03-21T11:57:10.854Z,32.33
2018-03-21T12:00:12.656Z,28.70
2018-03-21T12:03:13.904Z,26.07
2018-03-21T12:06:15.142Z,32.70
2018-03-21T12:09:17.151Z,32.20
2018-03-21T12:12:18.390Z,33.17
2018-03-21T12:15:20.401Z,31.57
2018-03-21T12:18:21.627Z,32.03
2018-03-21T12:21:23.630Z,28.43
2018-03-21T12:24:24.857Z,30.37
2018-03-21T12:27:26.121Z,29.43
2018-03-21T12:30:27.385Z,29.07
2018-03-21T12:33:28.624Z,27.10
2018-03-21T12:36:29.893Z,27.27
2018-03-21T12:39:31.145Z,23.03
2018-03-21T12:42:32.365Z,20.77
2018-03-21T12:45:33.584Z,24.60
2018-03-21T12:48:34.826Z,22.80
2018-03-21T12:51:36.102Z,22.37
2018-03-21T12:54:37.363Z,22.97
2018-03-21T12:57:38.590Z,23.67
2018-03-21T13:00:46.727Z,22.17
2018-03-21T13:03:47.954Z,22.47
2018-03-21T13:06:49.924Z,22.97
2018-03-21T13:09:51.138Z,23.70
2018-03-21T13:12:52.376Z,24.40
2018-03-21T13:15:53.587Z,23.50
2018-03-21T13:18:54.845Z,22.13
2018-03-21T13:21:56.072Z,23.40
2018-03-21T13:24:57.300Z,20.97
2018-03-21T13:27:59.283Z,21.77
2018-03-21T13:31:01.286Z,23.63
2018-03-21T13:34:02.574Z,20.13
2018-03-21T13:37:03.820Z,24.23
2018-03-21T13:40:05.086Z,24.40
2018-03-21T13:43:06.304Z,22.57
2018-03-21T13:46:07.554Z,23.93
2018-03-21T13:49:08.822Z,24.60
2018-03-21T13:52:10.070Z,22.90
2018-03-21T13:55:11.317Z,24.47
2018-03-21T13:58:12.559Z,22.07
2018-03-21T14:01:13.800Z,20.63
2018-03-21T14:04:15.839Z,21.60
2018-03-21T14:07:17.058Z,21.20
2018-03-21T14:10:18.301Z,22.17
2018-03-21T14:13:20.321Z,21.93
2018-03-21T14:16:21.651Z,20.53
2018-03-21T14:19:23.645Z,19.10
2018-03-21T14:22:24.868Z,18.20
2018-03-21T14:25:26.146Z,19.10
2018-03-21T14:28:28.131Z,18.93
2018-03-21T14:31:30.106Z,19.80
2018-03-21T14:34:31.455Z,19.33
2018-03-21T14:37:32.721Z,21.07
2018-03-21T14:40:33.972Z,19.40
2018-03-21T14:43:35.216Z,18.40
2018-03-21T14:46:36.438Z,17.33
2018-03-21T14:49:38.488Z,17.43
2018-03-21T14:52:39.676Z,18.97
2018-03-21T14:55:41.705Z,18.53
2018-03-21T14:58:43.033Z,19.13
2018-03-21T15:01:45.086Z,18.37
2018-03-21T15:04:46.344Z,20.10
2018-03-21T15:07:47.591Z,19.10
2018-03-21T15:10:48.862Z,17.77
2018-03-21T15:13:50.099Z,19.03
2018-03-21T15:16:51.361Z,19.67
2018-03-21T15:19:52.663Z,20.60
2018-03-21T15:22:53.918Z,20.60
2018-03-21T15:25:55.221Z,20.00
2018-03-21T15:28:56.477Z,20.30
2018-03-21T15:31:58.516Z,19.23
2018-03-21T15:34:59.790Z,19.50
2018-03-21T15:38:01.163Z,21.73
2018-03-21T15:41:02.415Z,20.23
2018-03-21T15:44:03.679Z,21.40
2018-03-21T15:47:04.954Z,23.83
2018-03-21T15:50:06.168Z,23.20
2018-03-21T15:53:07.400Z,24.77
2018-03-21T15:56:09.395Z,22.87
2018-03-21T15:59:10.715Z,23.70
2018-03-21T16:02:11.976Z,23.83
2018-03-21T16:05:13.230Z,23.13
2018-03-21T16:08:14.498Z,24.53
2018-03-21T16:11:16.510Z,24.20
2018-03-21T16:14:17.867Z,23.00
2018-03-21T16:17:19.115Z,23.90
2018-03-21T16:20:20.378Z,23.07
2018-03-21T16:23:21.630Z,21.03
2018-03-21T16:26:22.859Z,18.50
2018-03-21T16:29:24.174Z,20.87
2018-03-21T16:32:25.422Z,21.47
2018-03-21T16:35:26.687Z,20.13
2018-03-21T16:38:27.950Z,18.67
2018-03-21T16:41:29.233Z,23.37
2018-03-21T16:44:30.474Z,21.50
2018-03-21T16:47:31.742Z,18.33
2018-03-21T16:50:32.968Z,20.03
2018-03-21T16:53:34.221Z,22.77
2018-03-21T16:56:35.714Z,22.80
2018-03-21T16:59:36.956Z,22.77
2018-03-21T17:02:38.220Z,24.27
2018-03-21T17:05:39.490Z,22.07
2018-03-21T17:08:40.778Z,24.20
2018-03-21T17:11:42.037Z,22.70
2018-03-21T17:14:43.274Z,21.17
2018-03-21T17:17:44.521Z,20.97
2018-03-21T17:20:46.507Z,21.33
2018-03-21T17:23:47.758Z,21.03
2018-03-21T17:26:49.753Z,21.50
2018-03-21T17:29:50.964Z,20.70
2018-03-21T17:32:52.235Z,19.70
2018-03-21T17:35:53.472Z,21.03
2018-03-21T17:38:55.006Z,20.63
2018-03-21T17:41:56.364Z,21.30
2018-03-21T17:44:58.503Z,20.60
2018-03-21T17:48:00.734Z,21.20
2018-03-21T17:51:05.265Z,22.83
2018-03-21T17:54:09.100Z,20.33
2018-03-21T17:57:11.090Z,20.87
2018-03-21T18:00:13.148Z,19.40
2018-03-21T18:03:15.507Z,18.83
2018-03-21T18:06:17.216Z,20.17
2018-03-21T18:09:18.522Z,19.47
2018-03-21T18:12:20.284Z,17.13
2018-03-21T18:15:22.431Z,16.90
2018-03-21T18:18:24.567Z,18.20
2018-03-21T18:21:26.096Z,17.77
2018-03-21T18:24:29.749Z,18.10
2018-03-21T18:27:31.033Z,16.30
2018-03-21T18:30:32.274Z,16.83
2018-03-21T18:33:33.551Z,16.07
2018-03-21T18:36:35.350Z,15.67
2018-03-21T18:39:37.394Z,15.90
2018-03-21T18:42:38.687Z,13.80
2018-03-21T18:45:39.973Z,15.13
2018-03-21T18:48:41.339Z,15.53
2018-03-21T18:51:43.419Z,13.13
2018-03-21T18:54:44.680Z,11.07
2018-03-21T18:57:45.943Z,12.63
2018-03-21T19:00:47.171Z,63.07
2018-03-21T19:03:48.410Z,11.10
2018-03-21T19:06:49.804Z,11.10
2018-03-21T19:09:51.068Z,11.20
2018-03-21T19:12:52.324Z,11.90
2018-03-21T19:15:53.608Z,12.10
2018-03-21T19:18:56.066Z,12.93
2018-03-21T19:21:57.462Z,13.80
2018-03-21T19:24:59.490Z,11.77
2018-03-21T19:28:00.766Z,10.30
2018-03-21T19:31:02.623Z,9.73
2018-03-21T19:34:04.925Z,11.50
2018-03-21T19:37:07.638Z,12.10
2018-03-21T19:40:10.337Z,11.00
2018-03-21T19:43:12.031Z,8.97
2018-03-21T19:46:13.294Z,10.17
2018-03-21T19:49:14.948Z,8.40
2018-03-21T19:52:18.763Z,8.87
2018-03-21T19:55:20.156Z,10.30
2018-03-21T19:58:21.562Z,8.87
2018-03-21T20:01:22.876Z,8.07
2018-03-21T20:04:25.100Z,10.03
2018-03-21T20:07:28.086Z,8.63
2018-03-21T20:10:30.012Z,8.60
2018-03-21T20:13:32.589Z,8.50
2018-03-21T20:16:33.823Z,8.20
2018-03-21T20:19:35.119Z,9.30
2018-03-21T20:22:38.658Z,9.70
2018-03-21T20:25:40.403Z,8.30
2018-03-21T20:28:41.874Z,8.97
2018-03-21T20:31:43.300Z,9.53
2018-03-21T20:34:44.729Z,9.27
2018-03-21T20:37:46.202Z,9.93
2018-03-21T20:40:48.463Z,9.03
2018-03-21T20:43:51.122Z,8.00
2018-03-21T20:46:52.390Z,9.10
2018-03-21T20:49:54.316Z,9.30
2018-03-21T20:52:56.550Z,10.60
2018-03-21T20:55:58.611Z,10.80
2018-03-21T20:59:01.013Z,8.03
2018-03-21T21:02:02.947Z,9.60
2018-03-21T21:05:04.921Z,8.77
2018-03-21T21:08:06.577Z,9.47
2018-03-21T21:11:08.158Z,9.43
2018-03-21T21:14:10.624Z,10.10
2018-03-21T21:17:11.914Z,10.10
2018-03-21T21:20:13.863Z,10.80
2018-03-21T21:23:15.283Z,11.50
2018-03-21T21:26:18.251Z,10.57
2018-03-21T21:29:21.814Z,9.77
2018-03-21T21:32:23.084Z,10.50
2018-03-21T21:35:24.743Z,10.90
2018-03-21T21:38:27.409Z,14.80
2018-03-21T21:41:30.351Z,10.03
2018-03-21T21:44:32.008Z,11.07
2018-03-21T21:47:35.653Z,10.43
2018-03-21T21:50:38.168Z,11.00
2018-03-21T21:53:41.345Z,10.53
2018-03-21T21:56:42.655Z,10.43
2018-03-21T21:59:44.878Z,11.00
2018-03-21T22:02:46.218Z,10.50
2018-03-21T22:05:48.881Z,10.53
2018-03-21T22:08:51.291Z,11.30
2018-03-21T22:12:55.089Z,10.40
2018-03-21T22:15:57.132Z,9.80
2018-03-21T22:18:58.505Z,11.77
2018-03-21T22:22:00.591Z,10.87
2018-03-21T22:25:02.711Z,11.90
2018-03-21T22:28:04.238Z,11.80
2018-03-21T22:31:05.530Z,12.10
2018-03-21T22:34:06.827Z,11.80
2018-03-21T22:37:08.529Z,11.10
2018-03-21T22:40:09.813Z,11.13
2018-03-21T22:43:11.841Z,12.27
2018-03-21T22:46:13.156Z,12.20
2018-03-21T22:49:15.166Z,12.37
2018-03-21T22:52:16.429Z,12.00
2018-03-21T22:55:17.741Z,12.43
2018-03-21T22:58:19.076Z,12.70
2018-03-21T23:01:20.350Z,13.50
2018-03-21T23:04:21.592Z,11.77
2018-03-21T23:07:22.854Z,11.60
2018-03-21T23:10:24.101Z,13.30
2018-03-21T23:13:25.384Z,11.50
2018-03-21T23:16:26.651Z,13.67
2018-03-21T23:19:27.941Z,13.70
2018-03-21T23:22:29.214Z,13.67
2018-03-21T23:25:30.486Z,13.60
2018-03-21T23:28:31.845Z,13.00
2018-03-21T23:31:33.117Z,13.93
2018-03-21T23:34:34.364Z,12.10
2018-03-21T23:37:35.618Z,13.60
2018-03-21T23:40:36.853Z,15.10
2018-03-21T23:43:38.127Z,15.47
2018-03-21T23:46:39.355Z,14.73
2018-03-21T23:49:41.343Z,14.47
2018-03-21T23:52:42.604Z,15.00
2018-03-21T23:55:43.840Z,13.90
2018-03-21T23:58:45.075Z,15.70
